< < Back
Terminal Aerodrome Forecast


Current Version              Previous Versions:   1  2  3  4  5  6  7  8  9  

Terminal Aerodrome Forecast

294
FTUS44 KBMX 250520
TAFBHM
TAF
KBHM 250520Z 2506/2606 12007KT P6SM BKN060
     FM251000 14010KT P6SM OVC015
      TEMPO 2511/2515 4SM BR BKN007 OVC015
     FM251800 15007KT 5SM SHRA VCTS SCT025 BKN040CB=

Latest METAR

440
SAUS70 KWBC 250500 RRC
MTRBHM
METAR KBHM 250453Z 12007KT 10SM SCT060 23/18 A3017 RMK AO2 SLP207
T02280178 $


USA.gov is the U.S. government's official web portal to all federal, state and local government web resources and services.